Time;durP1;ratioP1;P1;durP2;ratioP2;P2;SDS_P1;SDS_P2;PMS_P1;PMS_P2;Temp;Humidity;BMP_temperature;BMP_pressure;BME280_temperature;BME280_humidity;BME280_pressure;Samples;Min_cycle;Max_cycle;Signal;HPM_P1;HPM_P2
2023/09/30 00:01:18;;;;;;;21.40;13.97;;;15.90;90.30;;;;;;5049271;28;20119;-83
2023/09/30 00:03:45;;;;;;;21.48;14.07;;;15.80;90.30;;;;;;5032960;28;20474;-83
2023/09/30 00:06:11;;;;;;;17.35;13.27;;;15.80;90.30;;;;;;5053267;28;20031;-83
2023/09/30 00:08:39;;;;;;;19.58;14.00;;;15.70;90.40;;;;;;5038673;28;20033;-83
2023/09/30 00:11:05;;;;;;;18.48;12.85;;;15.70;90.50;;;;;;5039171;28;20025;-84
2023/09/30 00:13:31;;;;;;;22.05;14.43;;;15.70;90.60;;;;;;5053065;28;20070;-83
2023/09/30 00:15:58;;;;;;;19.88;13.73;;;15.70;90.60;;;;;;5053723;28;20021;-82
2023/09/30 00:18:23;;;;;;;19.58;14.30;;;15.70;90.70;;;;;;5047866;28;20053;-82
2023/09/30 00:20:49;;;;;;;18.92;13.75;;;15.70;90.70;;;;;;5045129;28;20017;-84
2023/09/30 00:23:15;;;;;;;16.88;13.10;;;15.60;90.70;;;;;;5053676;28;20025;-83
2023/09/30 00:25:41;;;;;;;17.85;12.98;;;15.60;90.80;;;;;;5053638;28;20037;-83
2023/09/30 00:28:08;;;;;;;19.02;14.80;;;15.60;90.90;;;;;;5053960;28;20021;-83
2023/09/30 00:30:33;;;;;;;18.15;13.70;;;15.60;91.00;;;;;;5053938;28;20035;-83
2023/09/30 00:33:00;;;;;;;21.15;13.52;;;15.50;91.10;;;;;;5058017;28;20025;-82
2023/09/30 00:35:26;;;;;;;19.10;14.18;;;15.50;91.20;;;;;;5051191;28;20033;-83
2023/09/30 00:37:51;;;;;;;21.00;15.48;;;15.50;91.30;;;;;;5037981;28;20056;-83
2023/09/30 00:40:17;;;;;;;26.20;13.70;;;15.50;91.30;;;;;;5067955;28;20088;-83
2023/09/30 00:42:43;;;;;;;21.38;14.15;;;15.40;91.50;;;;;;5057149;28;20029;-83
2023/09/30 00:45:10;;;;;;;20.48;14.52;;;15.40;91.50;;;;;;5046778;28;20022;-83
2023/09/30 00:47:36;;;;;;;23.73;15.02;;;15.40;91.60;;;;;;5060204;28;20078;-82
2023/09/30 00:50:04;;;;;;;22.17;14.30;;;15.40;91.60;;;;;;5052939;28;20028;-82
2023/09/30 00:52:34;;;;;;;21.40;15.13;;;15.30;91.70;;;;;;5035602;28;20767;-82
2023/09/30 00:55:02;;;;;;;22.05;13.90;;;15.30;91.80;;;;;;5034326;28;20053;-83
2023/09/30 00:57:33;;;;;;;17.50;14.18;;;15.30;92.20;;;;;;5052176;28;20115;-86
2023/09/30 01:00:01;;;;;;;19.98;14.13;;;15.30;91.90;;;;;;5043735;28;20020;-82
2023/09/30 01:02:26;;;;;;;22.17;14.70;;;15.20;92.00;;;;;;5046993;28;20374;-84
2023/09/30 01:04:55;;;;;;;21.83;14.43;;;15.20;92.10;;;;;;5052317;28;20033;-82
2023/09/30 01:07:23;;;;;;;23.27;14.57;;;15.20;92.30;;;;;;5052551;28;20053;-83
2023/09/30 01:09:50;;;;;;;26.00;15.52;;;15.10;92.40;;;;;;5047852;28;20100;-84
2023/09/30 01:12:16;;;;;;;22.75;15.38;;;15.10;92.50;;;;;;5034639;28;20545;-83
2023/09/30 01:14:42;;;;;;;20.98;14.65;;;15.10;92.50;;;;;;5056251;28;20025;-84
2023/09/30 01:17:09;;;;;;;20.17;14.35;;;15.10;92.60;;;;;;5066166;28;20112;-81
2023/09/30 01:19:35;;;;;;;18.50;13.67;;;15.00;92.70;;;;;;5062497;28;20429;-84
2023/09/30 01:22:05;;;;;;;21.08;14.48;;;15.00;92.70;;;;;;5053462;28;20250;-84
2023/09/30 01:24:38;;;;;;;26.40;14.70;;;15.00;92.70;;;;;;5059047;28;20489;-84
2023/09/30 01:27:03;;;;;;;23.15;14.38;;;15.00;92.80;;;;;;5057776;28;20020;-84
2023/09/30 01:29:29;;;;;;;24.48;14.57;;;15.00;92.80;;;;;;5056751;28;20032;-83
2023/09/30 01:31:55;;;;;;;21.33;14.52;;;15.00;92.80;;;;;;5056127;28;20112;-84
2023/09/30 01:34:21;;;;;;;19.95;14.10;;;;;;;;;;5056165;28;20045;-84
2023/09/30 01:36:47;;;;;;;23.52;15.40;;;15.00;92.60;;;;;;5055991;28;20033;-83
2023/09/30 01:39:14;;;;;;;23.23;15.75;;;15.00;92.80;;;;;;5048184;28;20033;-83
2023/09/30 01:41:41;;;;;;;20.40;14.67;;;15.00;92.70;;;;;;5039425;28;20393;-83
2023/09/30 01:44:09;;;;;;;19.80;14.35;;;14.90;92.70;;;;;;5044077;28;20278;-83
2023/09/30 01:46:36;;;;;;;24.50;14.45;;;15.00;92.80;;;;;;5058763;28;20029;-84
2023/09/30 01:49:03;;;;;;;21.15;14.88;;;15.00;92.80;;;;;;5057722;28;20017;-84
2023/09/30 01:51:29;;;;;;;23.40;14.73;;;14.90;92.90;;;;;;5038576;28;20489;-84
2023/09/30 01:53:55;;;;;;;21.80;14.35;;;14.90;93.00;;;;;;5049808;28;20405;-85
2023/09/30 01:56:21;;;;;;;17.48;13.15;;;14.90;93.10;;;;;;5049625;28;20074;-83
2023/09/30 01:58:47;;;;;;;20.73;14.63;;;14.80;93.10;;;;;;5035080;28;20029;-84
2023/09/30 02:01:13;;;;;;;18.73;13.82;;;14.80;93.10;;;;;;5056466;28;20017;-84
2023/09/30 02:03:39;;;;;;;25.45;15.05;;;14.80;93.10;;;;;;5056379;28;20116;-84
2023/09/30 02:06:05;;;;;;;23.33;15.65;;;14.70;93.40;;;;;;5056499;28;20021;-82
2023/09/30 02:08:31;;;;;;;22.85;15.15;;;14.70;93.20;;;;;;5057936;28;20025;-82
2023/09/30 02:10:57;;;;;;;19.52;13.68;;;14.70;93.30;;;;;;5045676;28;20025;-82
2023/09/30 02:13:23;;;;;;;22.33;14.02;;;14.70;93.30;;;;;;5037015;28;20036;-81
2023/09/30 02:15:48;;;;;;;29.00;15.02;;;14.60;93.40;;;;;;5055343;28;20442;-81
2023/09/30 02:18:14;;;;;;;23.98;15.38;;;14.60;93.50;;;;;;5054981;28;20120;-82
2023/09/30 02:20:40;;;;;;;20.95;14.52;;;14.60;93.60;;;;;;5055298;28;20060;-83
2023/09/30 02:23:15;;;;;;;21.55;14.23;;;14.60;93.60;;;;;;5055590;28;20498;-82
2023/09/30 02:25:43;;;;;;;17.25;13.00;;;14.60;93.70;;;;;;5058542;28;20020;-82
2023/09/30 02:28:09;;;;;;;22.02;14.35;;;14.60;93.80;;;;;;5063535;28;20021;-81
2023/09/30 02:30:35;;;;;;;18.98;14.35;;;14.60;93.80;;;;;;5055549;28;20155;-82
2023/09/30 02:33:03;;;;;;;19.77;13.73;;;14.60;93.80;;;;;;5046372;28;20021;-81
2023/09/30 02:35:28;;;;;;;;;;;14.60;93.80;;;;;;5033021;28;20072;-82
2023/09/30 02:37:54;;;;;;;21.33;14.48;;;14.60;93.50;;;;;;5035427;28;20003;-82
2023/09/30 02:40:20;;;;;;;19.42;15.07;;;14.50;94.00;;;;;;5023628;28;20109;-82
2023/09/30 02:42:48;;;;;;;19.92;13.02;;;14.50;93.80;;;;;;5039071;28;20060;-82
2023/09/30 02:45:17;;;;;;;21.33;14.68;;;14.50;93.90;;;;;;5021067;28;20478;-82
2023/09/30 02:47:43;;;;;;;22.05;15.30;;;14.50;93.90;;;;;;5050538;28;20040;-82
2023/09/30 02:50:13;;;;;;;20.55;14.18;;;14.50;94.00;;;;;;5055292;28;20073;-82
2023/09/30 02:52:42;;;;;;;22.77;15.70;;;14.50;94.00;;;;;;5038873;28;20100;-82
2023/09/30 02:55:10;;;;;;;21.23;15.43;;;14.50;94.00;;;;;;5034639;28;20029;-82
2023/09/30 02:57:36;;;;;;;23.25;15.20;;;14.40;94.00;;;;;;5034763;28;20479;-81
2023/09/30 03:00:23;;;;;;;29.45;15.65;;;14.40;94.10;;;;;;5034903;28;20033;-83
2023/09/30 03:02:53;;;;;;;21.63;14.70;;;14.40;94.10;;;;;;5033789;28;20026;-82
2023/09/30 03:05:20;;;;;;;24.00;15.07;;;14.40;94.20;;;;;;5023112;28;20120;-82
2023/09/30 03:07:46;;;;;;;24.30;15.70;;;14.30;94.20;;;;;;5018048;28;20030;-82
2023/09/30 03:10:14;;;;;;;22.42;14.25;;;14.30;94.20;;;;;;5034870;28;20479;-82
2023/09/30 03:12:40;;;;;;;23.83;16.55;;;14.30;94.30;;;;;;5022700;28;20386;-81
2023/09/30 03:15:06;;;;;;;21.92;16.10;;;14.20;94.30;;;;;;5033124;28;20100;-83
2023/09/30 03:17:32;;;;;;;22.67;16.02;;;14.20;94.50;;;;;;5034669;28;20490;-82
2023/09/30 03:20:01;;;;;;;21.10;14.90;;;14.10;94.50;;;;;;5034815;28;20031;-82
2023/09/30 03:22:28;;;;;;;19.15;14.00;;;14.10;94.70;;;;;;5034040;28;20033;-82
2023/09/30 03:24:57;;;;;;;22.58;15.65;;;14.20;94.80;;;;;;5035227;28;20494;-81
2023/09/30 03:27:23;;;;;;;18.38;14.20;;;14.20;94.90;;;;;;5032943;28;20048;-81
2023/09/30 03:29:49;;;;;;;17.77;15.23;;;14.20;94.70;;;;;;5032590;28;20021;-80
2023/09/30 03:32:15;;;;;;;21.90;15.13;;;14.20;94.60;;;;;;5016359;28;20036;-82
2023/09/30 03:34:44;;;;;;;19.90;13.43;;;14.30;94.60;;;;;;5046501;28;20076;-81
2023/09/30 03:37:10;;;;;;;23.40;15.63;;;14.30;94.60;;;;;;5053524;28;20119;-81
2023/09/30 03:39:36;;;;;;;29.15;16.35;;;14.30;94.60;;;;;;5053820;28;20489;-81
2023/09/30 03:42:03;;;;;;;22.73;14.40;;;14.30;94.50;;;;;;5046558;28;20332;-82
2023/09/30 03:44:29;;;;;;;22.80;14.77;;;14.30;94.50;;;;;;5059492;28;20021;-82
2023/09/30 03:46:55;;;;;;;25.27;16.08;;;14.40;94.40;;;;;;5038745;28;20091;-82
2023/09/30 03:49:21;;;;;;;23.58;16.25;;;14.40;94.40;;;;;;5055463;28;20025;-82
2023/09/30 03:51:47;;;;;;;24.10;16.25;;;14.40;94.30;;;;;;5035282;28;20112;-81
2023/09/30 03:54:12;;;;;;;22.17;14.73;;;14.40;94.30;;;;;;5053014;28;20033;-82
2023/09/30 03:56:38;;;;;;;28.15;16.88;;;14.40;94.30;;;;;;5035379;28;20079;-82
2023/09/30 03:59:04;;;;;;;27.33;16.10;;;14.40;94.30;;;;;;5048879;28;20036;-80
2023/09/30 04:01:31;;;;;;;24.45;16.58;;;14.40;94.30;;;;;;5053191;28;20474;-81
2023/09/30 04:03:56;;;;;;;23.80;16.00;;;14.50;94.30;;;;;;5031113;28;20119;-81
2023/09/30 04:06:23;;;;;;;33.70;16.98;;;14.50;94.30;;;;;;5042382;28;20578;-81
2023/09/30 04:08:50;;;;;;;24.85;15.52;;;14.50;94.50;;;;;;5053579;28;20386;-82
2023/09/30 04:11:18;;;;;;;26.35;15.45;;;14.40;94.60;;;;;;5055064;28;20070;-82
2023/09/30 04:13:47;;;;;;;19.60;15.10;;;14.40;94.60;;;;;;5043458;28;20027;-79
2023/09/30 04:16:13;;;;;;;20.17;13.55;;;14.50;94.40;;;;;;5064513;28;20063;-81
2023/09/30 04:18:41;;;;;;;24.85;15.98;;;14.60;94.30;;;;;;5053000;28;20033;-82
2023/09/30 04:21:07;;;;;;;21.70;16.13;;;14.60;94.20;;;;;;5035570;28;20017;-83
2023/09/30 04:23:36;;;;;;;22.02;15.60;;;14.60;94.30;;;;;;5052859;28;20032;-81
2023/09/30 04:26:03;;;;;;;21.33;15.02;;;14.70;94.20;;;;;;5052657;28;20020;-82
2023/09/30 04:28:29;;;;;;;19.20;15.30;;;14.70;94.10;;;;;;5052722;28;20021;-81
2023/09/30 04:30:56;;;;;;;22.55;15.98;;;14.80;94.10;;;;;;5053292;28;20024;-83
2023/09/30 04:33:24;;;;;;;19.17;15.80;;;14.80;94.00;;;;;;5034485;28;20021;-82
2023/09/30 04:35:50;;;;;;;19.85;15.13;;;14.80;93.90;;;;;;5045022;28;20021;-83
2023/09/30 04:38:16;;;;;;;22.88;15.00;;;14.90;93.80;;;;;;5044303;28;20040;-81
2023/09/30 04:40:44;;;;;;;20.70;16.17;;;15.00;93.70;;;;;;5047185;28;20095;-83
2023/09/30 04:43:10;;;;;;;19.65;14.98;;;15.00;93.80;;;;;;5050619;28;20025;-83
2023/09/30 04:45:36;;;;;;;20.00;15.00;;;15.10;93.70;;;;;;5053410;28;20017;-81
2023/09/30 04:48:02;;;;;;;54.95;19.40;;;15.10;93.60;;;;;;5034946;28;20382;-83
2023/09/30 04:50:30;;;;;;;25.05;18.05;;;15.20;93.60;;;;;;5035671;28;20094;-83
2023/09/30 04:52:56;;;;;;;;;;;15.20;93.40;;;;;;5064146;28;20025;-83
2023/09/30 04:55:22;;;;;;;24.10;14.63;;;15.20;93.30;;;;;;5042294;28;20445;-83
2023/09/30 04:57:48;;;;;;;35.20;18.17;;;15.20;93.30;;;;;;5029834;28;20064;-83
2023/09/30 05:00:16;;;;;;;29.77;18.13;;;15.20;93.30;;;;;;5046182;28;20032;-82
2023/09/30 05:02:46;;;;;;;30.88;17.30;;;15.30;93.40;;;;;;5052219;28;20025;-81
2023/09/30 05:05:11;;;;;;;26.23;18.33;;;15.30;93.50;;;;;;5051592;28;20385;-82
2023/09/30 05:07:37;;;;;;;26.20;17.30;;;15.40;93.40;;;;;;5027551;28;20032;-85
2023/09/30 05:10:10;;;;;;;20.35;15.98;;;15.40;93.30;;;;;;5052880;28;20713;-84
2023/09/30 05:12:36;;;;;;;21.10;16.40;;;15.50;93.20;;;;;;5044237;28;20482;-83
2023/09/30 05:15:03;;;;;;;21.42;16.33;;;15.50;93.10;;;;;;5051402;28;20104;-84
2023/09/30 05:17:29;;;;;;;21.50;15.87;;;15.60;93.00;;;;;;5042550;28;20040;-83
2023/09/30 05:19:58;;;;;;;25.08;16.33;;;15.60;93.00;;;;;;5065618;28;20309;-84
2023/09/30 05:22:25;;;;;;;21.13;16.08;;;15.70;92.90;;;;;;5052751;28;20417;-83
2023/09/30 05:24:52;;;;;;;20.23;15.38;;;15.80;92.90;;;;;;5052412;28;20025;-84
2023/09/30 05:27:18;;;;;;;22.98;16.52;;;15.80;92.70;;;;;;5042217;28;20049;-82
2023/09/30 05:29:45;;;;;;;21.70;15.85;;;15.90;92.50;;;;;;5052264;28;20029;-83
2023/09/30 05:32:10;;;;;;;23.85;17.38;;;16.00;92.40;;;;;;5040341;28;20052;-84
2023/09/30 05:34:39;;;;;;;36.75;18.10;;;16.10;92.30;;;;;;5040929;28;20568;-83
2023/09/30 05:37:05;;;;;;;22.20;14.88;;;16.20;92.30;;;;;;5018429;28;20047;-83
2023/09/30 05:39:31;;;;;;;25.27;17.20;;;16.20;92.10;;;;;;5039425;28;20029;-83
2023/09/30 05:42:01;;;;;;;28.00;18.13;;;16.30;91.90;;;;;;5048925;28;20497;-84
2023/09/30 05:44:27;;;;;;;26.70;16.92;;;16.50;91.90;;;;;;5034836;28;20024;-83
2023/09/30 05:46:54;;;;;;;23.70;16.23;;;16.50;91.70;;;;;;5032712;28;20058;-82
2023/09/30 05:49:20;;;;;;;26.88;17.55;;;16.60;91.50;;;;;;5034557;28;20078;-83
2023/09/30 05:51:46;;;;;;;21.38;15.95;;;16.70;91.20;;;;;;5038280;28;20029;-83
2023/09/30 05:54:12;;;;;;;26.35;15.27;;;16.80;91.30;;;;;;5042176;28;20021;-84
2023/09/30 05:56:42;;;;;;;17.35;14.82;;;16.80;90.90;;;;;;5032382;28;20110;-83
2023/09/30 05:59:08;;;;;;;22.77;15.43;;;16.90;90.80;;;;;;5050230;28;20778;-84
2023/09/30 06:01:35;;;;;;;22.73;15.32;;;17.00;90.70;;;;;;5034436;28;20028;-85
2023/09/30 06:04:02;;;;;;;19.83;13.15;;;17.10;90.50;;;;;;5043911;28;20029;-86
2023/09/30 06:06:31;;;;;;;22.75;14.05;;;17.20;90.20;;;;;;5032131;28;20022;-81
2023/09/30 06:08:58;;;;;;;19.73;14.70;;;17.30;90.00;;;;;;5033600;28;20025;-85
2023/09/30 06:11:24;;;;;;;18.00;13.00;;;17.40;90.00;;;;;;5017790;28;20045;-83
2023/09/30 06:13:58;;;;;;;19.70;14.23;;;17.40;89.30;;;;;;5037261;28;20033;-84
2023/09/30 06:16:26;;;;;;;22.45;14.95;;;17.50;89.70;;;;;;5037599;28;20017;-81
2023/09/30 06:18:53;;;;;;;16.75;11.30;;;17.60;88.80;;;;;;5034872;28;20340;-81
2023/09/30 06:21:20;;;;;;;17.15;12.40;;;17.70;88.10;;;;;;5034605;28;20128;-82
2023/09/30 06:23:51;;;;;;;;;;;17.80;87.70;;;;;;5035747;28;20029;-84
2023/09/30 06:26:18;;;;;;;19.15;12.27;;;17.80;87.90;;;;;;5035501;28;20354;-83
2023/09/30 06:28:44;;;;;;;14.70;11.00;;;17.90;87.60;;;;;;5035442;28;20032;-84
2023/09/30 06:31:11;;;;;;;17.42;12.57;;;18.00;87.20;;;;;;5039032;28;20529;-85
2023/09/30 06:33:40;;;;;;;19.92;12.43;;;18.10;86.70;;;;;;5021593;28;20045;-83
2023/09/30 06:36:10;;;;;;;22.10;13.27;;;18.20;86.50;;;;;;5037316;28;20090;-83
2023/09/30 06:38:37;;;;;;;17.98;13.27;;;18.30;86.50;;;;;;5037214;28;20033;-83
2023/09/30 06:41:04;;;;;;;17.73;12.98;;;18.40;86.40;;;;;;5055510;28;20374;-83
2023/09/30 06:43:29;;;;;;;19.95;13.43;;;18.50;85.90;;;;;;5055436;28;20044;-84
2023/09/30 06:45:55;;;;;;;20.92;13.27;;;18.60;85.30;;;;;;5037689;28;20024;-83
2023/09/30 06:48:21;;;;;;;15.48;11.55;;;18.70;84.80;;;;;;5057055;28;20108;-83
2023/09/30 06:50:49;;;;;;;17.08;12.65;;;18.80;83.90;;;;;;5056983;28;20021;-85
2023/09/30 06:53:18;;;;;;;16.45;12.88;;;18.90;83.20;;;;;;5062231;28;20048;-83
2023/09/30 06:55:45;;;;;;;17.58;13.15;;;19.00;82.70;;;;;;5041186;28;20103;-82
2023/09/30 06:58:12;;;;;;;15.93;11.68;;;19.10;82.20;;;;;;5059250;28;20033;-82
2023/09/30 07:00:38;;;;;;;14.90;12.27;;;19.20;81.70;;;;;;5039789;28;20079;-82
2023/09/30 07:03:05;;;;;;;15.87;12.50;;;19.30;81.30;;;;;;5052280;28;20067;-82
2023/09/30 07:05:31;;;;;;;16.23;12.27;;;19.40;81.10;;;;;;5046905;28;20088;-83
2023/09/30 07:07:57;;;;;;;16.30;13.10;;;19.50;81.00;;;;;;5054562;28;20024;-82
2023/09/30 07:10:23;;;;;;;17.25;12.30;;;19.60;80.60;;;;;;5054734;28;20040;-83
2023/09/30 07:12:48;;;;;;;22.35;12.35;;;19.70;80.20;;;;;;5055417;28;20025;-84
2023/09/30 07:15:14;;;;;;;18.17;13.20;;;19.80;80.00;;;;;;5051373;28;20021;-83
2023/09/30 07:17:41;;;;;;;22.27;13.57;;;19.90;80.00;;;;;;5038423;28;20044;-84
2023/09/30 07:20:07;;;;;;;15.45;12.45;;;20.10;79.90;;;;;;5041720;28;20092;-82
2023/09/30 07:22:34;;;;;;;21.60;12.05;;;20.70;78.70;;;;;;5052363;28;20025;-81
2023/09/30 07:25:00;;;;;;;14.93;12.73;;;21.90;76.10;;;;;;5060561;28;20055;-83
2023/09/30 07:27:26;;;;;;;18.65;11.35;;;23.30;71.60;;;;;;5047669;28;20025;-82
2023/09/30 07:29:52;;;;;;;17.33;11.35;;;24.50;68.00;;;;;;5041259;28;20097;-84
2023/09/30 07:32:18;;;;;;;17.88;11.55;;;25.20;63.80;;;;;;5054291;28;20029;-84
2023/09/30 07:34:44;;;;;;;14.55;11.35;;;25.90;62.30;;;;;;5054764;28;20041;-84
2023/09/30 07:37:10;;;;;;;15.05;10.45;;;26.50;59.50;;;;;;5054604;28;20085;-84
2023/09/30 07:39:36;;;;;;;16.65;11.95;;;26.90;59.00;;;;;;5056084;28;20111;-83
2023/09/30 07:42:02;;;;;;;17.58;10.93;;;;;;;;;;5055606;28;20076;-82
2023/09/30 07:44:28;;;;;;;13.05;10.45;;;27.50;57.30;;;;;;5038150;28;20025;-83
2023/09/30 07:46:56;;;;;;;11.65;10.48;;;28.80;55.80;;;;;;5057443;28;20031;-83
2023/09/30 07:49:23;;;;;;;13.30;9.63;;;29.20;53.30;;;;;;5064646;28;20478;-83
2023/09/30 07:51:49;;;;;;;;;;;29.90;51.90;;;;;;5056471;28;20013;-82
2023/09/30 07:54:17;;;;;;;14.37;10.53;;;30.50;54.30;;;;;;5054167;28;20377;-85
2023/09/30 07:56:43;;;;;;;14.35;10.27;;;;;;;;;;5022309;28;20025;-85
2023/09/30 07:59:09;;;;;;;17.07;9.80;;;31.30;48.20;;;;;;5039654;28;20044;-85
2023/09/30 08:01:35;;;;;;;15.90;10.32;;;31.60;48.00;;;;;;5038618;28;20254;-84
2023/09/30 08:04:01;;;;;;;14.43;9.93;;;32.10;47.00;;;;;;5042635;28;20425;-86
2023/09/30 08:06:27;;;;;;;16.10;9.90;;;32.50;46.20;;;;;;5043465;28;20100;-85
2023/09/30 08:08:55;;;;;;;12.30;10.37;;;;;;;;;;5032306;28;20498;-84
2023/09/30 08:11:21;;;;;;;16.40;10.90;;;;;;;;;;5041393;28;20032;-85
2023/09/30 08:13:49;;;;;;;17.25;9.60;;;;;;;;;;5050311;28;20462;-84
2023/09/30 08:16:15;;;;;;;15.43;9.13;;;;;;;;;;5036026;28;20087;-85
2023/09/30 08:18:42;;;;;;;15.98;10.70;;;;;;;;;;5059190;28;20029;-85
2023/09/30 08:21:11;;;;;;;21.80;10.13;;;;;;;;;;5049692;28;20013;-85
2023/09/30 08:23:38;;;;;;;11.60;9.30;;;;;;;;;;5051614;28;20021;-86
2023/09/30 08:26:05;;;;;;;13.20;9.82;;;32.80;45.50;;;;;;5036235;28;20044;-84
2023/09/30 08:28:31;;;;;;;;;;;33.90;42.80;;;;;;5056025;28;20097;-85
2023/09/30 08:31:05;;;;;;;;;;;34.10;45.00;;;;;;5038202;28;19911;-86
2023/09/30 08:33:32;;;;;;;11.38;9.45;;;34.50;45.50;;;;;;5049502;28;19917;-84
2023/09/30 08:36:08;;;;;;;18.58;9.52;;;35.00;41.90;;;;;;5048894;28;20049;-85
2023/09/30 08:38:41;;;;;;;12.23;8.90;;;35.50;41.10;;;;;;5044914;28;20026;-86
2023/09/30 08:41:07;;;;;;;15.15;9.45;;;36.00;40.90;;;;;;5043620;28;20021;-86
2023/09/30 08:43:40;;;;;;;13.73;8.80;;;36.30;40.10;;;;;;5041130;28;20030;-86
2023/09/30 08:46:07;;;;;;;18.52;10.27;;;36.30;39.80;;;;;;5052906;28;20025;-86
2023/09/30 08:48:34;;;;;;;17.73;9.85;;;36.40;39.80;;;;;;5045873;28;20490;-90
2023/09/30 08:51:01;;;;;;;21.88;9.70;;;36.70;39.80;;;;;;5046182;28;20211;-89
2023/09/30 08:53:29;;;;;;;11.52;8.10;;;37.10;39.10;;;;;;5035482;28;20434;-90
2023/09/30 08:55:56;;;;;;;10.32;9.07;;;36.50;38.20;;;;;;5054995;28;20020;-90
2023/09/30 08:58:29;;;;;;;9.10;8.10;;;35.90;38.60;;;;;;5037148;28;20478;-91
2023/09/30 09:00:56;;;;;;;14.52;9.52;;;35.90;39.20;;;;;;5032303;28;20025;-84
2023/09/30 09:03:22;;;;;;;19.95;8.77;;;36.10;39.00;;;;;;5060822;28;20063;-88
2023/09/30 09:05:57;;;;;;;12.63;8.93;;;36.60;38.70;;;;;;5057554;28;20029;-88
2023/09/30 09:08:25;;;;;;;13.43;8.50;;;37.10;38.20;;;;;;5056126;28;20424;-89
2023/09/30 09:11:00;;;;;;;15.88;7.72;;;36.60;37.50;;;;;;5047284;28;20409;-92
2023/09/30 09:13:27;;;;;;;13.73;7.88;;;36.50;37.70;;;;;;5064385;28;20426;-92
2023/09/30 09:16:11;;;;;;;14.75;9.55;;;36.10;37.80;;;;;;5035383;28;20018;-90
2023/09/30 09:18:37;;;;;;;17.88;9.00;;;36.10;38.50;;;;;;5035803;28;20067;-89
2023/09/30 09:21:13;;;;;;;;;;;36.20;38.00;;;;;;5054788;28;20024;-90
2023/09/30 09:23:40;;;;;;;10.38;7.60;;;36.20;38.40;;;;;;5030984;28;19909;-92
2023/09/30 09:26:07;;;;;;;20.67;10.23;;;35.80;37.80;;;;;;5026853;28;20123;-92
2023/09/30 09:28:38;;;;;;;14.60;9.05;;;35.60;38.30;;;;;;5039098;28;20158;-86
2023/09/30 09:31:23;;;;;;;14.95;8.45;;;35.20;38.00;;;;;;5051904;28;20021;-87
2023/09/30 09:33:51;;;;;;;13.23;8.90;;;35.20;38.70;;;;;;5050299;28;20046;-85
2023/09/30 09:36:19;;;;;;;12.68;8.27;;;35.60;38.20;;;;;;5046252;28;20095;-84
2023/09/30 09:38:52;;;;;;;21.45;12.18;;;35.40;37.60;;;;;;5042860;28;20034;-86
2023/09/30 09:41:18;;;;;;;10.02;8.38;;;34.90;38.40;;;;;;5058172;28;20041;-87
2023/09/30 09:43:49;;;;;;;12.13;8.80;;;34.50;38.20;;;;;;5047491;28;20421;-86
2023/09/30 09:46:17;;;;;;;14.25;10.43;;;33.00;38.90;;;;;;5047597;28;20045;-86
2023/09/30 09:48:47;;;;;;;16.58;9.15;;;31.80;40.90;;;;;;5039504;28;20029;-86
2023/09/30 09:51:13;;;;;;;20.58;10.35;;;31.50;41.40;;;;;;5055984;28;20470;-86
2023/09/30 09:53:40;;;;;;;;;;;31.40;41.60;;;;;;5046054;28;20227;-87
2023/09/30 09:56:12;;;;;;;14.43;9.05;;;31.50;41.70;;;;;;5044886;28;19951;-84
2023/09/30 09:58:42;;;;;;;14.50;9.40;;;31.40;41.30;;;;;;5055483;28;20021;-80
2023/09/30 10:01:10;;;;;;;12.85;9.23;;;30.80;42.00;;;;;;5056127;28;20092;-82
2023/09/30 10:03:38;;;;;;;10.85;9.13;;;30.50;42.10;;;;;;5046518;28;20032;-81
2023/09/30 10:06:05;;;;;;;15.55;9.77;;;30.90;42.10;;;;;;5056740;28;20028;-81
2023/09/30 10:08:41;;;;;;;12.25;9.05;;;31.60;41.10;;;;;;5055468;28;20119;-82
2023/09/30 10:11:07;;;;;;;15.32;9.68;;;;;;;;;;5055461;28;20120;-82
2023/09/30 10:13:56;;;;;;;13.32;9.30;;;31.20;40.60;;;;;;5037933;28;20024;-83
2023/09/30 10:16:37;;;;;;;12.93;9.07;;;28.50;44.50;;;;;;5055939;28;20492;-82
2023/09/30 10:19:12;;;;;;;11.90;9.30;;;;;;;;;;5056627;28;20036;-82
2023/09/30 10:21:39;;;;;;;13.30;10.07;;;;;;;;;;5055591;28;20025;-82
2023/09/30 10:24:27;;;;;;;13.50;10.02;;;;;;;;;;5056058;28;20021;-82
2023/09/30 10:27:12;;;;;;;19.17;11.13;;;;;;;;;;5051567;28;20044;-81
2023/09/30 10:29:44;;;;;;;16.98;11.45;;;;;;;;;;5034832;28;20037;-84
2023/09/30 10:32:10;;;;;;;13.57;10.55;;;;;;;;;;5053471;28;20108;-82
2023/09/30 10:34:37;;;;;;;15.80;10.32;;;;;;;;;;5054831;28;20053;-82
2023/09/30 10:37:22;;;;;;;14.93;11.32;;;;;;;;;;5038351;28;20798;-82
2023/09/30 10:39:55;;;;;;;15.13;10.70;;;;;;;;;;5056634;28;20025;-85
2023/09/30 10:42:40;;;;;;;14.70;10.90;;;;;;;;;;5036809;28;20464;-83
2023/09/30 10:45:07;;;;;;;20.27;12.57;;;;;;;;;;5054976;28;20096;-82
2023/09/30 10:47:36;;;;;;;13.43;10.75;;;;;;;;;;5054807;28;20419;-84
2023/09/30 10:50:04;;;;;;;22.00;11.50;;;;;;;;;;5055220;28;20025;-83
2023/09/30 10:52:31;;;;;;;20.15;11.65;;;;;;;;;;5057167;28;20462;-82
2023/09/30 10:55:04;;;;;;;24.67;12.98;;;;;;;;;;5055271;28;20029;-84
2023/09/30 10:57:30;;;;;;;18.50;12.68;;;;;;;;;;5053543;28;20450;-83
2023/09/30 11:00:12;;;;;;;18.83;12.70;;;;;;;;;;5038026;28;20017;-85
2023/09/30 11:02:51;;;;;;;18.35;11.23;;;;;;;;;;5055649;28;20098;-84
2023/09/30 11:05:17;;;;;;;22.27;13.07;;;;;;;;;;5035543;28;20018;-85
2023/09/30 11:07:44;;;;;;;14.52;11.27;;;;;;;;;;5049197;28;20059;-82
2023/09/30 11:10:12;;;;;;;20.33;11.85;;;;;;;;;;5055981;28;20025;-82
2023/09/30 11:12:38;;;;;;;23.48;11.82;;;;;;;;;;5054985;28;20028;-82
2023/09/30 11:15:05;;;;;;;12.50;10.20;;;;;;;;;;5033464;28;20101;-82
2023/09/30 11:17:32;;;;;;;17.05;11.13;;;;;;;;;;5045450;28;20032;-82
2023/09/30 11:19:59;;;;;;;17.67;11.25;;;;;;;;;;5044865;28;20029;-82
2023/09/30 11:22:26;;;;;;;12.38;11.15;;;;;;;;;;5056518;28;20013;-84
2023/09/30 11:24:52;;;;;;;16.45;12.00;;;;;;;;;;5035649;28;20076;-83
2023/09/30 11:27:24;;;;;;;14.43;10.65;;;;;;;;;;5036235;28;20034;-84
2023/09/30 11:29:51;;;;;;;17.75;10.00;;;;;;;;;;5064479;28;20032;-81
2023/09/30 11:32:28;;;;;;;23.80;13.82;;;;;;;;;;5064754;28;20028;-84
2023/09/30 11:34:55;;;;;;;15.93;10.52;;;;;;;;;;5047800;28;20083;-82
2023/09/30 11:37:24;;;;;;;17.73;12.17;;;;;;;;;;5050987;28;20128;-82
2023/09/30 11:39:51;;;;;;;17.92;12.00;;;;;;;;;;5047281;28;20529;-83
2023/09/30 11:42:17;;;;;;;15.75;11.20;;;;;;;;;;5046034;28;20025;-81
2023/09/30 11:44:48;;;;;;;15.68;11.50;;;;;;;;;;5037083;28;20036;-83
2023/09/30 11:47:15;;;;;;;21.50;13.85;;;;;;;;;;5043726;28;20026;-81
2023/09/30 11:49:44;;;;;;;19.80;12.35;;;27.20;45.10;;;;;;5046381;28;20024;-81
2023/09/30 11:52:16;;;;;;;17.77;10.57;;;23.90;54.70;;;;;;5047634;28;20017;-81
2023/09/30 11:54:44;;;;;;;16.63;11.77;;;23.60;54.50;;;;;;5029902;28;20017;-81
2023/09/30 11:57:11;;;;;;;14.15;11.45;;;23.50;54.60;;;;;;5049407;28;20075;-82
2023/09/30 11:59:39;;;;;;;;;;;23.50;54.60;;;;;;5029848;28;20036;-80
2023/09/30 12:02:11;;;;;;;17.92;10.95;;;23.40;54.50;;;;;;5035802;28;19909;-82
2023/09/30 12:04:38;;;;;;;16.10;11.82;;;23.40;55.50;;;;;;5023188;28;20114;-81
2023/09/30 12:07:04;;;;;;;18.42;10.52;;;23.30;55.50;;;;;;5035479;28;20021;-83
2023/09/30 12:09:31;;;;;;;15.73;10.80;;;23.30;55.70;;;;;;5035339;28;20125;-82
2023/09/30 12:11:58;;;;;;;22.15;12.50;;;23.20;55.80;;;;;;5032805;28;20021;-82
2023/09/30 12:14:24;;;;;;;18.25;10.65;;;23.20;56.80;;;;;;5050368;28;20419;-82
2023/09/30 12:16:50;;;;;;;15.60;10.02;;;23.10;56.00;;;;;;5033363;28;20029;-82
2023/09/30 12:19:20;;;;;;;12.50;10.68;;;23.10;55.70;;;;;;5034957;28;20029;-82
2023/09/30 12:21:47;;;;;;;13.07;11.00;;;23.10;55.80;;;;;;5034082;28;20021;-81
2023/09/30 12:24:21;;;;;;;17.92;11.50;;;23.10;55.90;;;;;;5033551;28;20414;-82
2023/09/30 12:26:48;;;;;;;15.48;10.20;;;23.10;56.20;;;;;;5031610;28;20048;-83
2023/09/30 12:29:22;;;;;;;14.23;10.10;;;23.00;56.00;;;;;;5033186;28;20021;-82
2023/09/30 12:31:50;;;;;;;14.32;10.90;;;23.10;56.00;;;;;;5048724;28;20407;-82
2023/09/30 12:34:17;;;;;;;14.02;10.00;;;23.10;55.90;;;;;;5041611;28;20049;-83
2023/09/30 12:36:43;;;;;;;17.05;11.35;;;23.00;56.00;;;;;;5053904;28;20024;-81
2023/09/30 12:39:13;;;;;;;13.27;10.23;;;22.90;56.40;;;;;;5052547;28;20036;-81
2023/09/30 12:41:40;;;;;;;21.05;11.35;;;23.00;56.60;;;;;;5034976;28;20028;-82
2023/09/30 12:44:07;;;;;;;16.88;9.88;;;23.10;56.70;;;;;;5053378;28;20021;-82
2023/09/30 12:46:36;;;;;;;11.50;10.40;;;23.20;56.30;;;;;;5052894;28;20021;-81
2023/09/30 12:49:09;;;;;;;14.02;10.50;;;23.30;56.00;;;;;;5056943;28;20078;-84